Station: CUMMINS AERO

  Atmospheric Gas Attenuation - ITU Rec 676-11   --------------- db/100km ---------------
Date Time Temp RH % AH g/m3 Dew Point Wind Direction Speed kph Gust kph Barometer mB Rainfall Since 9am 24GHz 47GHz 76GHz 122GHz 134GHz 241GHz
17 03:00 4.4 100 6.53 4.4 7 9 1019.7 0.2 15.6 25.4 36.1 94.3 81.8 278.9
17 02:50 5.4 5.5 7 9 1019.7 0.2
17 02:40 5.9 6 9 9 1019.8 0.2
17 02:30 5 100 6.8 5 0 0 1020 0.2 16.1 25.7 36.9 96.6 84.9 290.0
17 02:20 4.5 100 6.58 4.5 0 0 1020 0.2 15.7 25.5 36.2 94.8 82.4 281.1
17 02:10 4.4 100 6.53 4.4 0 0 1020.1 0.2 15.6 25.4 36.1 94.3 81.8 279.0
17 02:00 4.7 100 6.67 4.7 0 0 1020.2 0.2 15.8 25.6 36.5 95.6 83.5 284.8
17 01:50 5.7 100 7.12 5.7 0 0 1020.2 0.2 16.8 26.1 38.0 99.4 88.6 303.1
17 01:40 6.5 100 7.5 6.5 0 0 1020.3 0.2 17.6 26.5 39.2 102.7 93.0 318.6
17 01:30 7.7 100 8.11 7.7 6 7 1020.4 0.2 18.8 27.2 41.2 108.1 100.2 343.7
17 01:20 8 100 8.27 8 6 6 1020.4 0.2 19.2 27.4 41.8 109.5 102.0 350.3
17 01:10 8.3 8.4 6 7 1020.5 0.2
17 01:00 8.2 100 8.38 8.2 7 9 1020.6 0.2 19.4 27.5 42.1 110.5 103.3 354.9
17 00:50 8.2 100 8.38 8.2 9 11 1020.5 0.2 19.4 27.5 42.1 110.5 103.3 354.9
17 00:40 8.5 100 8.54 8.5 9 11 1020.6 0.2 19.7 27.7 42.7 111.9 105.2 361.5
17 00:30 8.8 100 8.71 8.8 9 13 1020.8 0 20.1 27.9 43.2 113.5 107.2 368.6
17 00:20 9.3 100 8.99 9.3 9 11 1020.7 0 20.6 28.2 44.2 116.0 110.5 380.2
17 00:10 9.5 100 9.1 9.5 9 9 1020.8 0 20.9 28.4 44.5 117.0 111.8 384.7
17 00:00 9.6 100 9.16 9.6 11 17 1021 0 21.0 28.4 44.8 117.5 112.5 387.3
16 23:50 9.9 100 9.34 9.9 13 17 1020.9 0 21.4 28.6 45.4 119.2 114.7 394.8
16 23:40 10.1 100 9.46 10.1 17 20 1021 0 21.6 28.8 45.8 120.3 116.1 399.9
16 23:30 10.1 100 9.46 10.1 17 22 1021.2 0 21.6 28.8 45.8 120.3 116.1 399.9
16 23:20 9.9 100 9.34 9.9 13 17 1021.1 0 21.4 28.7 45.4 119.2 114.7 394.9
16 23:10 10 100 9.4 10 17 19 1021.1 0 21.5 28.7 45.6 119.7 115.4 397.4
16 23:00 10 100 9.4 10 13 17 1021.4 0 21.5 28.7 45.6 119.8 115.4 397.5
16 22:50 10 10.1 15 17 1021.3 0
16 22:40 9.9 10 13 15 1021.3 0
16 22:30 9.8 100 9.28 9.8 13 17 1021.4 0 21.2 28.6 45.2 118.7 114.0 392.5
16 22:20 9.3 9.4 11 11 1021.5 0
16 22:10 9.2 9.3 11 13 1021.6 0
16 22:00 9.5 100 9.1 9.5 11 15 1021.8 0 20.9 28.4 44.6 117.1 111.9 385.0
16 21:50 9.3 9.4 11 13 1021.8 0
16 21:40 9.6 9.7 11 11 1021.9 0
16 21:30 9.4 100 9.05 9.4 11 17 1022.1 0 20.8 28.3 44.4 116.7 111.4 383.1
16 21:20 9.4 9.5 9 11 1022 0
16 21:10 9.7 9.8 11 13 1022.1 0
16 21:00 9.8 100 9.28 9.8 11 15 1022.3 0 21.2 28.6 45.2 118.8 114.1 392.7
16 20:50 9.9 10 9 11 1022.2 0
16 20:40 10 10.1 11 15 1022.2 0
16 20:30 9.9 100 9.34 9.9 13 17 1022.3 0 21.4 28.7 45.4 119.3 114.8 395.3
16 20:20 10 10.1 13 17 1022.2 0
16 20:10 10 10.1 13 17 1022.3 0
16 20:00 10.1 100 9.46 10.1 9 15 1022.4 0 21.6 28.9 45.9 120.4 116.2 400.3
16 19:50 10.1 10.2 11 13 1022.4 0
16 19:40 10.1 10.2 13 17 1022.3 0
16 19:30 10.1 100 9.46 10.1 9 15 1022.3 0 21.6 28.8 45.8 120.4 116.2 400.3
16 19:20 10.3 10.4 9 11 1022.2 0
16 19:10 10.3 10.4 9 13 1022.1 0
16 19:00 10.4 100 9.64 10.4 9 13 1022.2 0 22.0 29.1 46.5 122.1 118.4 407.8
16 18:50 10.9 100 9.95 10.9 7 9 1022.2 0 22.6 29.4 47.5 124.9 122.1 420.8
16 18:40 11 11.1 9 9 1022 0
16 18:30 10.9 100 9.95 10.9 9 13 1022 0 22.6 29.4 47.5 124.9 122.1 420.7
16 18:20 11.1 100 10.07 11.1 11 13 1021.9 0 22.9 29.6 47.9 126.0 123.5 425.7
16 18:10 11.4 100 10.27 11.4 7 9 1021.9 0 23.3 29.8 48.6 127.8 125.9 434.2
16 18:00 11.5 100 10.33 11.5 7 11 1022 0 23.4 29.9 48.8 128.4 126.6 436.7
16 17:50 12 100 10.66 12 7 7 1022 0 24.1 30.3 50.0 131.5 130.6 450.6
16 17:40 12.4 100 10.93 12.4 7 9 1021.9 0 24.7 30.7 50.9 134.0 133.8 462.1
16 17:30 12.9 99 11.16 12.7 11 17 1021.9 0 25.1 30.9 51.6 135.8 136.3 470.8
16 17:20 13.4 96 11.16 12.8 15 17 1021.6 0 25.1 30.7 51.3 134.9 135.4 467.7
16 17:10 14 92 11.1 12.7 19 22 1021.3 0 24.9 30.4 50.6 133.1 133.4 460.9
16 17:00 14.5 87 10.82 12.4 24 30 1021 0 24.3 29.7 49.0 129.0 128.5 443.8
16 16:50 15.1 80 10.32 11.7 20 22 1021.1 0 23.2 28.6 46.5 122.3 120.5 416.0
16 16:40 15.6 81 10.77 12.4 7 9 1022.2 0 24.1 29.3 48.2 126.7 126.1 435.5
16 16:30 15.3 76 9.92 11.1 9 11 1022.4 0 22.3 28.0 44.8 117.7 114.9 396.2
16 16:20 15.8 75 10.1 11.4 7 9 1022.3 0 22.7 28.1 45.3 118.9 116.5 402.2
16 16:10 16 71 9.67 10.7 7 9 1022.4 0 21.7 27.3 43.4 113.9 110.5 380.9
16 16:00 16.8 68 9.72 10.9 0 0 1022.5 0 21.8 27.2 43.2 113.3 110.0 379.4
16 15:50 16.7 67 9.52 10.5 0 0 1022.4 0 21.4 26.9 42.4 111.3 107.5 370.5
16 15:40 16.7 70 9.95 11.2 9 11 1022.4 0 22.3 27.6 44.1 116.0 113.2 390.5
16 15:30 16.5 69 9.69 10.8 9 13 1022.4 0 21.8 27.2 43.2 113.4 110.0 379.4
16 15:20 16.4 70 9.77 10.9 9 11 1022.3 0 21.9 27.4 43.6 114.4 111.2 383.6
16 15:10 16.3 69 9.57 10.6 0 0 1022.4 0 21.5 27.1 42.8 112.4 108.7 374.8
16 15:00 16.5 68 9.55 10.6 9 13 1022.5 0 21.5 27.0 42.6 111.9 108.2 372.9
16 14:50 17 69 9.98 11.3 11 15 1022.4 0 22.4 27.5 44.1 115.8 113.2 390.5
16 14:40 16.3 72 9.99 11.2 4 6 1022.4 0 22.4 27.8 44.5 117.0 114.3 394.4
16 14:30 16 71 9.67 10.7 11 13 1022.5 0 21.7 27.3 43.4 113.9 110.5 380.9
16 14:20 16.8 68 9.72 10.9 13 15 1022.4 0 21.8 27.2 43.2 113.3 110.0 379.3
16 14:10 16.3 67 9.29 10.2 11 13 1022.4 0 20.9 26.6 41.7 109.4 105.0 361.8
16 14:00 16.8 72 10.29 11.7 13 17 1022.5 0 23.0 28.1 45.5 119.5 117.6 406.1
16 13:50 16.6 71 10.03 11.3 15 17 1022.5 0 22.5 27.7 44.5 117.0 114.4 394.8
16 13:40 16.4 73 10.19 11.6 9 13 1022.7 0 22.8 28.1 45.3 119.1 116.9 403.5
16 13:30 16.4 75 10.47 12 9 15 1022.9 0 23.4 28.5 46.5 122.2 120.7 416.9
16 13:20 15.9 74 10.02 11.3 15 15 1022.9 0 22.5 28.0 44.9 118.0 115.4 398.0
16 13:10 15.6 74 9.84 11 11 13 1022.8 0 22.1 27.7 44.3 116.4 113.4 391.0
16 13:00 16.4 76 10.61 12.2 13 20 1022.9 0 23.7 28.8 47.1 123.7 122.7 423.6
16 12:50 16.1 75 10.28 11.7 17 19 1022.9 0 23.0 28.3 45.9 120.5 118.6 409.4
16 12:40 16.1 73 10.01 11.3 17 17 1023.1 0 22.5 27.9 44.8 117.6 115.0 396.6
16 12:30 16.3 75 10.4 11.9 15 20 1023.5 0 23.3 28.5 46.3 121.6 120.0 414.2
16 12:20 16.3 80 11.1 12.8 11 15 1023.6 0 24.8 29.7 49.2 129.5 129.7 448.2
16 12:10 15.5 82 10.84 12.4 7 9 1023.8 0 24.3 29.5 48.6 127.9 127.4 440.1
16 12:00 16.2 89 12.27 14.4 7 11 1024 0 27.3 31.8 54.4 143.3 146.6 507.3
16 11:50 15.3 92 12.01 14 2 6 1024.1 0 26.8 31.6 53.9 141.9 144.6 500.0
16 11:40 14.9 100 12.74 14.9 0 0 1024.3 0 28.4 33.1 57.5 151.5 156.3 540.6
16 11:30 14.1 100 12.14 14.1 4 7 1024.7 0 27.1 32.4 55.4 145.8 148.9 514.9
16 11:20 13.6 13.9 2 6 1024.7 0
16 11:10 13.2 13.7 0 0 1024.8 0
16 11:00 12.1 100 10.73 12.1 2 6 1025 0 24.2 30.5 50.4 132.5 131.7 454.7
16 10:50 11.8 12.2 0 0 1024.9 0
16 10:40 10.6 11 0 0 1025.1 0
16 10:30 9.9 100 9.34 9.9 0 0 1025.2 0 21.4 28.8 45.6 119.7 115.1 396.2

Last Refresh: 17-Jul-2020 03:11:26

Most of the information presented on this site is sourced from the Bureau of Meteorology.  Copyright in all material sourced from the Bureau of Meteorology resides with the Commonwealth of Australia.